1IL2 weather

CLOSED Hobby Hideaway RLA Airport
Delavan, Illinois, United States

Public forecast

Using degrees Fahrenheit for public forecast. Weather courtesy of forecast.io.

Closest aviation weather report (METAR) to Hobby Hideaway RLA Airport

Closest report is Logan County Airport, 12.9 nm (23.9 km) SSE. Retrieved 2020/05/29 04:35 UTC (18 minutes ago):

KAAA 290435Z AUTO 27003KT 10SM SCT011 BKN022 OVC028 20/18 A2992 RMK AO2 T02000175

Closest aviation forecast (TAF) to Hobby Hideaway RLA Airport

Closest forecast is General Wayne A. Downing Peoria International Airport, 21.6 nm (40.0 km) NNW. Retrieved 2020-05-29 00:22 UTC (5 hours ago):

TAF KPIA 282320Z 2900/2924 29007KT 6SM -SHRA VCTS OVC015CB FM290200 33007KT P6SM VCSH BKN035 FM290800 34007KT P6SM BKN020 FM291300 33013G20KT P6SM FEW040 SCT250